Time;durP1;ratioP1;P1;durP2;ratioP2;P2;SDS_P1;SDS_P2;PMS_P1;PMS_P2;Temp;Humidity;BMP_temperature;BMP_pressure;BME280_temperature;BME280_humidity;BME280_pressure;Samples;Min_cycle;Max_cycle;Signal;HPM_P1;HPM_P2
2021/09/19 00:01:16;;;;;;;6.43;5.28;;;14.30;99.90;;;;;;4936289;29;20764;-73
2021/09/19 00:03:42;;;;;;;5.38;4.88;;;14.30;99.90;;;;;;4937382;29;20024;-76
2021/09/19 00:06:07;;;;;;;5.22;4.72;;;14.30;99.90;;;;;;4936033;29;20031;-74
2021/09/19 00:08:34;;;;;;;6.30;5.70;;;14.20;99.90;;;;;;4937570;29;20070;-74
2021/09/19 00:11:00;;;;;;;7.63;5.85;;;14.20;99.90;;;;;;4935035;29;20080;-73
2021/09/19 00:13:26;;;;;;;6.78;5.13;;;14.20;99.90;;;;;;4936570;29;20503;-73
2021/09/19 00:15:51;;;;;;;5.63;5.13;;;14.20;99.90;;;;;;4936195;29;20036;-73
2021/09/19 00:18:17;;;;;;;5.88;5.10;;;14.30;99.90;;;;;;4935677;29;20028;-74
2021/09/19 00:20:46;;;;;;;5.15;4.65;;;14.20;99.90;;;;;;4937529;29;20032;-74
2021/09/19 00:23:12;;;;;;;6.10;5.55;;;14.20;99.90;;;;;;4936015;29;20034;-74
2021/09/19 00:25:38;;;;;;;6.55;4.95;;;14.20;99.90;;;;;;4935646;29;20142;-73
2021/09/19 00:28:05;;;;;;;5.95;5.45;;;14.20;99.90;;;;;;4937202;29;20185;-73
2021/09/19 00:30:30;;;;;;;5.95;5.05;;;14.20;99.90;;;;;;4935701;29;20039;-74
2021/09/19 00:32:58;;;;;;;6.97;6.00;;;14.10;99.90;;;;;;4937055;29;20086;-74
2021/09/19 00:35:25;;;;;;;6.82;6.20;;;14.20;99.90;;;;;;4936156;29;20560;-76
2021/09/19 00:37:50;;;;;;;6.90;6.30;;;14.20;99.90;;;;;;4935300;29;20396;-74
2021/09/19 00:40:16;;;;;;;6.55;5.95;;;14.20;99.90;;;;;;4935678;29;20020;-75
2021/09/19 00:42:42;;;;;;;5.70;5.20;;;14.20;99.90;;;;;;4936403;29;20465;-75
2021/09/19 00:45:11;;;;;;;6.10;5.50;;;14.10;99.90;;;;;;4936018;29;20024;-75
2021/09/19 00:47:38;;;;;;;6.20;5.60;;;14.10;99.90;;;;;;4935930;29;20027;-76
2021/09/19 00:50:05;;;;;;;6.40;5.80;;;14.10;99.90;;;;;;4935487;29;20067;-83
2021/09/19 00:52:31;;;;;;;8.70;6.53;;;14.10;99.90;;;;;;4936325;29;20072;-74
2021/09/19 00:54:59;;;;;;;6.28;5.65;;;14.10;99.90;;;;;;4936509;29;20048;-75
2021/09/19 00:57:26;;;;;;;7.38;5.07;;;14.10;99.90;;;;;;4936730;29;20070;-74
2021/09/19 00:59:52;;;;;;;6.75;6.15;;;14.10;99.90;;;;;;4934870;29;20023;-76
2021/09/19 01:02:20;;;;;;;7.43;6.35;;;14.10;99.90;;;;;;4935534;29;20070;-74
2021/09/19 01:04:46;;;;;;;6.07;5.55;;;14.10;99.90;;;;;;4935806;29;20051;-75
2021/09/19 01:07:13;;;;;;;6.80;5.90;;;14.10;99.90;;;;;;4934483;29;20029;-75
2021/09/19 01:09:40;;;;;;;6.80;6.20;;;14.10;99.90;;;;;;4935520;29;20131;-75
2021/09/19 01:12:07;;;;;;;7.70;6.90;;;14.10;99.90;;;;;;4936248;29;20055;-73
2021/09/19 01:14:33;;;;;;;7.82;7.10;;;14.10;99.90;;;;;;4934907;29;20028;-73
2021/09/19 01:16:59;;;;;;;8.52;6.90;;;14.10;99.90;;;;;;4934910;29;20015;-73
2021/09/19 01:19:25;;;;;;;6.70;6.03;;;14.10;99.90;;;;;;4935596;29;20034;-73
2021/09/19 01:21:54;;;;;;;6.22;5.63;;;14.00;99.90;;;;;;4934468;29;20032;-74
2021/09/19 01:24:21;;;;;;;8.00;6.43;;;14.10;99.90;;;;;;4934806;29;20394;-74
2021/09/19 01:26:47;;;;;;;6.63;6.03;;;14.10;99.90;;;;;;4935690;29;20047;-74
2021/09/19 01:29:12;;;;;;;6.30;5.70;;;14.00;99.90;;;;;;4936076;29;20030;-73
2021/09/19 01:31:38;;;;;;;6.90;6.20;;;14.00;99.90;;;;;;4936303;29;20028;-73
2021/09/19 01:34:05;;;;;;;6.95;6.35;;;14.10;99.90;;;;;;4935363;29;20024;-74
2021/09/19 01:36:36;;;;;;;6.60;5.88;;;14.10;99.90;;;;;;4936094;29;20027;-74
2021/09/19 01:39:06;;;;;;;7.07;6.38;;;14.10;99.90;;;;;;4934495;29;20031;-73
2021/09/19 01:41:31;;;;;;;7.70;6.78;;;14.10;99.90;;;;;;4935730;29;20032;-74
2021/09/19 01:43:57;;;;;;;7.00;6.40;;;14.10;99.90;;;;;;4935696;29;20030;-76
2021/09/19 01:46:22;;;;;;;8.45;7.65;;;14.10;99.90;;;;;;4936235;29;20038;-75
2021/09/19 01:48:48;;;;;;;7.55;6.93;;;14.10;99.90;;;;;;4934161;29;20024;-74
2021/09/19 01:51:15;;;;;;;8.43;7.07;;;14.10;99.90;;;;;;4935671;29;20040;-73
2021/09/19 01:53:41;;;;;;;8.40;7.68;;;14.10;99.90;;;;;;4934665;29;20028;-74
2021/09/19 01:56:08;;;;;;;8.57;6.93;;;14.10;99.90;;;;;;4934797;29;20031;-75
2021/09/19 01:58:49;;;;;;;8.15;7.35;;;14.10;99.90;;;;;;4935140;29;20088;-75
2021/09/19 02:01:15;;;;;;;8.55;6.70;;;14.00;99.90;;;;;;4935685;29;20046;-74
2021/09/19 02:03:41;;;;;;;8.00;7.00;;;14.00;99.90;;;;;;4933711;29;20487;-75
2021/09/19 02:06:08;;;;;;;7.82;7.10;;;14.00;99.90;;;;;;4934018;29;20032;-76
2021/09/19 02:08:37;;;;;;;7.30;6.68;;;14.00;99.90;;;;;;4935926;29;20554;-74
2021/09/19 02:11:04;;;;;;;8.60;7.60;;;14.00;99.90;;;;;;4933220;29;20072;-74
2021/09/19 02:13:30;;;;;;;7.15;6.55;;;13.90;99.90;;;;;;4934117;29;20397;-74
2021/09/19 02:15:56;;;;;;;7.30;6.70;;;14.00;99.90;;;;;;4933152;29;20030;-74
2021/09/19 02:18:22;;;;;;;7.93;7.22;;;13.90;99.90;;;;;;4935735;29;20028;-74
2021/09/19 02:20:47;;;;;;;7.78;6.80;;;13.90;99.90;;;;;;4935298;29;20036;-74
2021/09/19 02:23:13;;;;;;;7.70;6.97;;;13.90;99.90;;;;;;4934725;29;20078;-74
2021/09/19 02:25:39;;;;;;;7.40;6.80;;;13.90;99.90;;;;;;4935318;29;20107;-74
2021/09/19 02:28:04;;;;;;;7.90;7.10;;;13.90;99.90;;;;;;4935161;29;20023;-74
2021/09/19 02:30:30;;;;;;;7.90;7.20;;;13.90;99.90;;;;;;4933509;29;20059;-74
2021/09/19 02:32:55;;;;;;;8.15;7.40;;;13.90;99.90;;;;;;4933874;29;20062;-73
2021/09/19 02:35:21;;;;;;;7.88;7.07;;;13.90;99.90;;;;;;4934186;29;20059;-74
2021/09/19 02:37:47;;;;;;;6.68;6.07;;;13.90;99.90;;;;;;4933276;29;20051;-74
2021/09/19 02:40:15;;;;;;;7.85;7.05;;;13.90;99.90;;;;;;4933948;29;20031;-74
2021/09/19 02:42:40;;;;;;;7.90;7.20;;;13.90;99.90;;;;;;4934243;29;20032;-77
2021/09/19 02:45:08;;;;;;;8.18;7.38;;;13.90;99.90;;;;;;4933225;29;20520;-74
2021/09/19 02:47:34;;;;;;;9.13;8.13;;;13.90;99.90;;;;;;4933922;29;20032;-75
2021/09/19 02:49:59;;;;;;;8.35;7.60;;;13.90;99.90;;;;;;4933487;29;20171;-75
2021/09/19 02:52:25;;;;;;;9.20;8.30;;;13.90;99.90;;;;;;4934347;29;20039;-74
2021/09/19 02:54:51;;;;;;;8.32;7.63;;;13.90;99.90;;;;;;4935264;29;20023;-76
2021/09/19 02:57:16;;;;;;;8.35;7.57;;;13.90;99.90;;;;;;4934941;29;20020;-74
2021/09/19 02:59:42;;;;;;;8.32;7.53;;;13.90;99.90;;;;;;4933324;29;20031;-74
2021/09/19 03:02:07;;;;;;;8.63;7.57;;;13.90;99.90;;;;;;4934428;29;20050;-74
2021/09/19 03:04:33;;;;;;;7.53;6.82;;;13.90;99.90;;;;;;4935633;29;20460;-74
2021/09/19 03:06:59;;;;;;;7.32;6.72;;;13.90;99.90;;;;;;4933741;29;20028;-77
2021/09/19 03:09:25;;;;;;;9.30;7.15;;;13.90;99.90;;;;;;4934138;29;20542;-75
2021/09/19 03:11:50;;;;;;;8.25;7.47;;;13.90;99.90;;;;;;4933943;29;20039;-74
2021/09/19 03:14:16;;;;;;;9.77;8.70;;;13.90;99.90;;;;;;4932928;29;20110;-74
2021/09/19 03:16:41;;;;;;;7.97;7.28;;;13.90;99.90;;;;;;4934895;29;20028;-74
2021/09/19 03:19:07;;;;;;;8.77;7.88;;;13.90;99.90;;;;;;4933476;29;20034;-74
2021/09/19 03:21:32;;;;;;;8.50;7.70;;;14.00;99.90;;;;;;4934199;29;20044;-74
2021/09/19 03:23:58;;;;;;;7.97;7.28;;;14.00;99.90;;;;;;4936718;29;20122;-75
2021/09/19 03:26:24;;;;;;;7.60;6.90;;;14.00;99.90;;;;;;4936443;29;20047;-76
2021/09/19 03:28:49;;;;;;;7.55;6.85;;;14.10;99.90;;;;;;4938677;29;20027;-74
2021/09/19 03:31:15;;;;;;;8.20;7.40;;;14.10;99.90;;;;;;4937111;29;20059;-74
2021/09/19 03:33:41;;;;;;;9.02;8.13;;;14.20;99.90;;;;;;4936689;29;20030;-74
2021/09/19 03:36:07;;;;;;;8.20;7.50;;;14.10;99.90;;;;;;4932125;29;20102;-76
2021/09/19 03:38:32;;;;;;;9.30;8.05;;;14.20;99.90;;;;;;4934917;29;20019;-78
2021/09/19 03:40:58;;;;;;;10.07;9.18;;;14.20;99.90;;;;;;4936526;29;20032;-75
2021/09/19 03:43:23;;;;;;;8.75;7.95;;;14.20;99.90;;;;;;4938462;29;20372;-73
2021/09/19 03:45:49;;;;;;;8.73;7.82;;;14.20;99.90;;;;;;4938007;29;20031;-74
2021/09/19 03:48:15;;;;;;;7.70;7.03;;;14.20;99.90;;;;;;4935851;29;20388;-77
2021/09/19 03:50:41;;;;;;;9.23;8.25;;;14.20;99.90;;;;;;4936705;29;20384;-75
2021/09/19 03:53:07;;;;;;;8.55;7.75;;;14.20;99.90;;;;;;4936254;29;20428;-75
2021/09/19 03:55:33;;;;;;;8.30;7.50;;;14.20;99.90;;;;;;4935698;29;20092;-75
2021/09/19 03:57:59;;;;;;;9.13;8.30;;;14.20;99.90;;;;;;4936744;29;20059;-73
2021/09/19 04:00:25;;;;;;;8.60;7.70;;;14.20;99.90;;;;;;4938130;29;20495;-77
2021/09/19 04:02:50;;;;;;;8.25;7.55;;;14.20;99.90;;;;;;4936109;29;20035;-74
2021/09/19 04:05:16;;;;;;;8.07;7.28;;;14.10;99.90;;;;;;4937703;29;20107;-76
2021/09/19 04:07:41;;;;;;;8.07;7.28;;;14.20;99.90;;;;;;4937261;29;20433;-74
2021/09/19 04:10:09;;;;;;;8.00;7.30;;;14.10;99.90;;;;;;4936471;29;20043;-78
2021/09/19 04:12:35;;;;;;;7.72;7.03;;;14.10;99.90;;;;;;4936425;29;20080;-74
2021/09/19 04:15:01;;;;;;;9.35;7.93;;;14.10;99.90;;;;;;4937287;29;20032;-76
2021/09/19 04:17:26;;;;;;;8.27;7.47;;;14.10;99.90;;;;;;4935571;29;20028;-75
2021/09/19 04:19:52;;;;;;;9.10;7.82;;;14.10;99.90;;;;;;4936327;29;20550;-78
2021/09/19 04:22:18;;;;;;;8.52;7.78;;;14.00;99.90;;;;;;4936078;29;20531;-76
2021/09/19 04:24:44;;;;;;;8.05;7.25;;;14.00;99.90;;;;;;4935605;29;20487;-76
2021/09/19 04:27:09;;;;;;;8.50;7.75;;;14.00;99.90;;;;;;4935505;29;20044;-76
2021/09/19 04:29:35;;;;;;;8.93;8.13;;;14.00;99.90;;;;;;4936714;29;20380;-75
2021/09/19 04:32:02;;;;;;;9.05;8.25;;;13.90;99.90;;;;;;4936425;29;20484;-74
2021/09/19 04:34:28;;;;;;;8.13;7.43;;;13.90;99.90;;;;;;4934945;29;20107;-75
2021/09/19 04:36:53;;;;;;;8.02;7.32;;;13.80;99.90;;;;;;4934597;29;20063;-73
2021/09/19 04:39:19;;;;;;;7.78;7.07;;;13.80;99.90;;;;;;4935242;29;20039;-73
2021/09/19 04:41:45;;;;;;;7.28;6.65;;;13.80;99.90;;;;;;4936111;29;20043;-74
2021/09/19 04:44:10;;;;;;;8.02;7.28;;;13.80;99.90;;;;;;4936151;29;20035;-76
2021/09/19 04:46:36;;;;;;;6.60;6.00;;;13.70;99.90;;;;;;4935906;29;20130;-73
2021/09/19 04:49:02;;;;;;;6.57;5.97;;;13.70;99.90;;;;;;4936726;29;20028;-75
2021/09/19 04:51:28;;;;;;;8.43;7.10;;;13.70;99.90;;;;;;4934875;29;20066;-73
2021/09/19 04:53:54;;;;;;;8.20;7.40;;;13.70;99.90;;;;;;4936623;29;20024;-75
2021/09/19 04:56:20;;;;;;;7.60;6.90;;;13.60;99.90;;;;;;4936845;29;20036;-75
2021/09/19 04:58:45;;;;;;;6.97;6.38;;;13.60;99.90;;;;;;4936529;29;20099;-76
2021/09/19 05:01:11;;;;;;;6.35;5.85;;;13.60;99.90;;;;;;4936262;29;20063;-73
2021/09/19 05:03:37;;;;;;;8.13;7.38;;;13.60;99.90;;;;;;4936979;29;20536;-75
2021/09/19 05:06:02;;;;;;;7.68;6.93;;;13.60;99.90;;;;;;4935789;29;20032;-75
2021/09/19 05:08:28;;;;;;;7.85;7.15;;;13.60;99.90;;;;;;4936871;29;20063;-75
2021/09/19 05:10:53;;;;;;;7.40;6.80;;;13.50;99.90;;;;;;4935264;29;20028;-73
2021/09/19 05:13:19;;;;;;;7.40;6.70;;;13.50;99.90;;;;;;4935987;29;20048;-74
2021/09/19 05:15:45;;;;;;;7.13;6.53;;;13.50;99.90;;;;;;4936778;29;20028;-74
2021/09/19 05:18:11;;;;;;;8.15;7.35;;;13.50;99.90;;;;;;4934999;29;20357;-74
2021/09/19 05:20:37;;;;;;;7.28;6.60;;;13.50;99.90;;;;;;4935613;29;20038;-75
2021/09/19 05:23:03;;;;;;;6.80;6.20;;;13.50;99.90;;;;;;4935929;29;20034;-75
2021/09/19 05:25:29;;;;;;;6.80;6.20;;;13.40;99.90;;;;;;4934666;29;20040;-76
2021/09/19 05:27:54;;;;;;;6.90;6.20;;;13.50;99.90;;;;;;4935393;29;20031;-74
2021/09/19 05:30:21;;;;;;;7.25;6.65;;;13.40;99.90;;;;;;4935021;29;20043;-78
2021/09/19 05:32:47;;;;;;;7.13;6.53;;;13.40;99.90;;;;;;4935945;29;20039;-75
2021/09/19 05:35:13;;;;;;;7.00;6.28;;;13.40;99.90;;;;;;4935384;29;20024;-74
2021/09/19 05:37:39;;;;;;;7.13;6.53;;;13.40;99.90;;;;;;4936143;29;20083;-76
2021/09/19 05:40:07;;;;;;;7.53;6.72;;;13.40;99.90;;;;;;4934848;29;20055;-75
2021/09/19 05:42:33;;;;;;;7.28;6.45;;;13.40;99.90;;;;;;4934643;29;20032;-73
2021/09/19 05:44:59;;;;;;;6.97;6.38;;;13.40;99.90;;;;;;4935476;29;20042;-74
2021/09/19 05:47:25;;;;;;;7.05;6.45;;;13.40;99.90;;;;;;4933227;29;20484;-74
2021/09/19 05:49:50;;;;;;;7.05;6.35;;;13.40;99.90;;;;;;4936354;29;20035;-74
2021/09/19 05:52:16;;;;;;;7.88;7.18;;;13.40;99.90;;;;;;4935662;29;20036;-75
2021/09/19 05:54:41;;;;;;;7.32;6.55;;;13.40;99.90;;;;;;4935397;29;20031;-75
2021/09/19 05:57:07;;;;;;;7.93;7.20;;;13.40;99.90;;;;;;4935343;29;20036;-74
2021/09/19 05:59:32;;;;;;;7.35;6.75;;;13.40;99.90;;;;;;4935708;29;20032;-74
2021/09/19 06:01:58;;;;;;;6.78;6.18;;;13.40;99.90;;;;;;4934658;29;20156;-78
2021/09/19 06:04:23;;;;;;;7.25;6.63;;;13.40;99.90;;;;;;4935841;29;20027;-75
2021/09/19 06:06:49;;;;;;;7.13;6.50;;;13.50;99.90;;;;;;4934499;29;20042;-74
2021/09/19 06:09:15;;;;;;;7.43;6.72;;;13.50;99.90;;;;;;4933466;29;20473;-74
2021/09/19 06:11:42;;;;;;;8.93;8.07;;;13.50;99.90;;;;;;4934517;29;20192;-73
2021/09/19 06:14:08;;;;;;;7.93;7.22;;;13.50;99.90;;;;;;4935272;29;20023;-74
2021/09/19 06:16:34;;;;;;;7.57;6.85;;;13.50;99.90;;;;;;4935224;29;20507;-74
2021/09/19 06:18:59;;;;;;;7.93;7.22;;;13.50;99.90;;;;;;4933710;29;20028;-74
2021/09/19 06:21:25;;;;;;;7.03;6.43;;;13.50;99.90;;;;;;4934374;29;20039;-73
2021/09/19 06:23:50;;;;;;;7.22;6.53;;;13.50;99.90;;;;;;4933481;29;20032;-74
2021/09/19 06:26:16;;;;;;;6.90;6.30;;;13.50;99.90;;;;;;4935011;29;20052;-74
2021/09/19 06:28:41;;;;;;;8.40;7.57;;;13.50;99.90;;;;;;4934284;29;20020;-74
2021/09/19 06:31:07;;;;;;;7.50;6.80;;;13.50;99.90;;;;;;4932796;29;20067;-77
2021/09/19 06:33:34;;;;;;;8.57;7.78;;;13.50;99.90;;;;;;4935585;29;20063;-76
2021/09/19 06:36:00;;;;;;;8.52;7.65;;;13.50;99.90;;;;;;4934807;29;20107;-75
2021/09/19 06:38:26;;;;;;;8.48;7.78;;;13.50;99.90;;;;;;4933731;29;20019;-73
2021/09/19 06:40:52;;;;;;;7.90;7.20;;;13.60;99.90;;;;;;4935090;29;20047;-73
2021/09/19 06:43:17;;;;;;;7.85;7.15;;;13.60;99.90;;;;;;4933228;29;20444;-73
2021/09/19 06:45:43;;;;;;;10.00;7.60;;;13.60;99.90;;;;;;4934079;29;20028;-75
2021/09/19 06:48:08;;;;;;;7.70;7.00;;;13.60;99.90;;;;;;4935011;29;20032;-77
2021/09/19 06:50:34;;;;;;;7.30;6.50;;;13.60;99.90;;;;;;4933358;29;20020;-74
2021/09/19 06:53:00;;;;;;;7.20;6.50;;;13.60;99.90;;;;;;4933656;29;20035;-78
2021/09/19 06:55:26;;;;;;;7.18;6.57;;;13.60;99.90;;;;;;4934141;29;20023;-76
2021/09/19 06:57:58;;;;;;;7.22;6.63;;;13.60;99.90;;;;;;4935057;29;20031;-74
2021/09/19 07:00:24;;;;;;;7.85;7.15;;;13.70;99.90;;;;;;4937761;29;20163;-77
2021/09/19 07:02:50;;;;;;;7.63;6.93;;;13.70;99.90;;;;;;4937778;29;20035;-75
2021/09/19 07:05:15;;;;;;;8.07;7.25;;;13.70;99.90;;;;;;4938156;29;20028;-74
2021/09/19 07:07:41;;;;;;;9.00;7.32;;;13.80;99.90;;;;;;4937727;29;20030;-75
2021/09/19 07:10:07;;;;;;;8.70;7.78;;;13.80;99.90;;;;;;4938699;29;20038;-75
2021/09/19 07:12:33;;;;;;;8.57;7.68;;;13.90;99.90;;;;;;4937136;29;20036;-77
2021/09/19 07:14:58;;;;;;;7.72;6.93;;;13.90;99.90;;;;;;4937105;29;20027;-74
2021/09/19 07:17:24;;;;;;;8.00;7.28;;;14.00;99.90;;;;;;4939018;29;20034;-79
2021/09/19 07:19:49;;;;;;;6.88;6.28;;;14.10;99.90;;;;;;4937110;29;20034;-77
2021/09/19 07:22:15;;;;;;;8.10;7.20;;;14.10;99.90;;;;;;4938261;29;20395;-76
2021/09/19 07:24:41;;;;;;;7.78;6.97;;;14.20;99.90;;;;;;4937281;29;20050;-76
2021/09/19 07:27:07;;;;;;;7.05;6.45;;;14.20;99.90;;;;;;4937870;29;20470;-77
2021/09/19 07:29:33;;;;;;;7.45;6.30;;;14.20;99.90;;;;;;4937452;29;20019;-75
2021/09/19 07:32:01;;;;;;;6.80;6.20;;;14.20;99.90;;;;;;4928562;29;20032;-77
2021/09/19 07:34:28;;;;;;;7.43;6.72;;;14.20;99.90;;;;;;4937073;29;20049;-77
2021/09/19 07:36:55;;;;;;;6.60;6.00;;;14.20;99.90;;;;;;4933585;29;20406;-77
2021/09/19 07:39:21;;;;;;;7.75;6.25;;;14.20;99.90;;;;;;4931640;29;20028;-77
2021/09/19 07:41:48;;;;;;;7.35;6.63;;;14.30;99.90;;;;;;4931236;29;20039;-78
2021/09/19 07:44:14;;;;;;;7.13;6.40;;;14.30;99.90;;;;;;4927024;29;20519;-75
2021/09/19 07:46:40;;;;;;;7.07;6.45;;;14.30;99.90;;;;;;4917329;29;20081;-75
2021/09/19 07:49:06;;;;;;;7.57;6.88;;;14.30;99.90;;;;;;4917591;29;20135;-77
2021/09/19 07:51:32;;;;;;;8.20;7.05;;;14.30;99.90;;;;;;4918177;29;20115;-77
2021/09/19 07:53:58;;;;;;;6.97;6.28;;;14.40;99.90;;;;;;4918061;29;20358;-77
2021/09/19 07:56:23;;;;;;;6.50;5.93;;;14.30;99.90;;;;;;4918981;29;20099;-76
2021/09/19 07:58:49;;;;;;;7.40;6.70;;;14.40;99.90;;;;;;4917570;29;20036;-80
2021/09/19 08:01:15;;;;;;;9.10;6.53;;;14.40;99.90;;;;;;4916530;29;20475;-78
2021/09/19 08:03:41;;;;;;;6.70;5.85;;;14.40;99.90;;;;;;4919078;29;20080;-75
2021/09/19 08:06:06;;;;;;;7.25;6.25;;;14.40;99.90;;;;;;4918438;29;20036;-75
2021/09/19 08:08:32;;;;;;;6.78;6.18;;;14.50;99.90;;;;;;4918090;29;20107;-74
2021/09/19 08:10:59;;;;;;;6.30;5.72;;;14.50;99.90;;;;;;4928096;29;20499;-74
2021/09/19 08:13:24;;;;;;;6.65;6.05;;;14.50;99.90;;;;;;4937905;29;20115;-74
2021/09/19 08:15:50;;;;;;;6.82;6.13;;;14.60;99.90;;;;;;4931414;29;20154;-74
2021/09/19 08:18:16;;;;;;;6.00;5.47;;;14.60;99.90;;;;;;4926265;29;20560;-75
2021/09/19 08:20:43;;;;;;;6.03;5.53;;;14.60;99.90;;;;;;4926824;29;20047;-75
2021/09/19 08:23:09;;;;;;;6.93;6.30;;;14.60;99.90;;;;;;4925291;29;20039;-74
2021/09/19 08:25:35;;;;;;;6.90;6.30;;;14.70;99.90;;;;;;4928285;29;20040;-74
2021/09/19 08:28:00;;;;;;;6.50;5.90;;;14.60;99.90;;;;;;4926618;29;20032;-78
2021/09/19 08:30:26;;;;;;;6.45;5.75;;;14.70;99.90;;;;;;4925001;29;20115;-74
2021/09/19 08:32:52;;;;;;;7.55;6.85;;;14.70;99.90;;;;;;4924776;29;20491;-75
2021/09/19 08:35:18;;;;;;;7.22;6.53;;;14.70;99.90;;;;;;4924733;29;20024;-74
2021/09/19 08:37:44;;;;;;;7.72;6.60;;;14.80;99.90;;;;;;4933925;29;20059;-74
2021/09/19 08:40:12;;;;;;;5.90;5.40;;;14.80;99.90;;;;;;4936439;29;20082;-75
2021/09/19 08:42:38;;;;;;;6.40;5.75;;;14.90;99.90;;;;;;4936283;29;20039;-74
2021/09/19 08:45:05;;;;;;;6.65;5.97;;;14.90;99.90;;;;;;4931831;29;20020;-75
2021/09/19 08:47:31;;;;;;;6.82;6.22;;;14.90;99.90;;;;;;4921855;29;20043;-75
2021/09/19 08:49:59;;;;;;;6.20;5.60;;;15.00;99.90;;;;;;4931489;29;20016;-75
2021/09/19 08:52:25;;;;;;;6.13;5.60;;;15.00;99.90;;;;;;4928219;29;20040;-75
2021/09/19 08:54:51;;;;;;;7.65;6.82;;;15.10;99.90;;;;;;4935376;29;20540;-76
2021/09/19 08:57:17;;;;;;;6.47;5.88;;;15.10;99.90;;;;;;4934688;29;20028;-78
2021/09/19 08:59:45;;;;;;;7.13;6.53;;;15.10;99.90;;;;;;4935575;29;20028;-75
2021/09/19 09:02:13;;;;;;;7.88;6.93;;;15.20;99.90;;;;;;4935283;29;20043;-75
2021/09/19 09:04:40;;;;;;;7.05;6.35;;;15.20;99.90;;;;;;4935923;29;20032;-75
2021/09/19 09:07:05;;;;;;;6.47;5.78;;;15.30;99.90;;;;;;4935013;29;20038;-77
2021/09/19 09:09:31;;;;;;;7.32;6.70;;;15.30;99.90;;;;;;4936783;29;20031;-76
2021/09/19 09:12:11;;;;;;;7.88;7.18;;;15.30;99.90;;;;;;4934240;29;20079;-75
2021/09/19 09:14:40;;;;;;;6.00;5.50;;;15.40;99.90;;;;;;4917728;29;20028;-79
2021/09/19 09:17:16;;;;;;;6.15;5.65;;;15.40;99.90;;;;;;4932963;29;20764;-76
2021/09/19 09:19:43;;;;;;;6.85;6.00;;;15.50;99.90;;;;;;4915796;29;20040;-78
2021/09/19 09:22:10;;;;;;;6.28;5.68;;;15.50;99.90;;;;;;4915916;29;20515;-83
2021/09/19 09:24:41;;;;;;;6.47;5.88;;;15.60;99.90;;;;;;4916172;29;20039;-79
2021/09/19 09:27:23;;;;;;;6.25;5.70;;;15.60;99.90;;;;;;4928340;29;20563;-81
2021/09/19 09:30:08;;;;;;;6.20;5.50;;;15.60;99.90;;;;;;4935028;29;20386;-78
2021/09/19 09:32:56;;;;;;;6.20;5.70;;;15.70;99.90;;;;;;4934403;29;20031;-78
2021/09/19 09:35:23;;;;;;;7.57;5.47;;;15.80;99.90;;;;;;4934290;29;20055;-80
2021/09/19 09:37:49;;;;;;;6.30;5.70;;;15.80;99.90;;;;;;4932945;29;20062;-78
2021/09/19 09:40:24;;;;;;;6.57;5.93;;;15.90;99.90;;;;;;4934085;29;20071;-75
2021/09/19 09:43:10;;;;;;;5.57;5.07;;;16.00;99.90;;;;;;4916037;29;20393;-78
2021/09/19 09:45:38;;;;;;;6.47;5.22;;;16.20;99.90;;;;;;4916119;29;20032;-78
2021/09/19 09:48:27;;;;;;;5.30;4.80;;;16.30;99.90;;;;;;4916083;29;20108;-76
2021/09/19 09:50:54;;;;;;;5.85;4.22;;;16.70;99.90;;;;;;4921219;29;20042;-79
2021/09/19 09:53:24;;;;;;;6.00;5.22;;;16.90;99.90;;;;;;4934097;29;20035;-74
2021/09/19 09:55:51;;;;;;;9.00;5.13;;;16.90;99.90;;;;;;4934602;29;20032;-75
2021/09/19 09:58:18;;;;;;;5.82;5.20;;;16.90;99.90;;;;;;4934038;29;20031;-75
2021/09/19 10:00:50;;;;;;;4.90;4.40;;;16.90;99.90;;;;;;4915048;29;20107;-76
2021/09/19 10:03:16;;;;;;;5.40;4.90;;;17.00;99.90;;;;;;4915542;29;20047;-77
2021/09/19 10:05:43;;;;;;;5.35;4.85;;;17.00;99.90;;;;;;4921631;29;20051;-76
2021/09/19 10:08:09;;;;;;;5.00;4.50;;;17.00;99.90;;;;;;4933613;29;20032;-76
2021/09/19 10:10:41;;;;;;;4.43;4.03;;;17.10;99.90;;;;;;4935286;29;20539;-81
2021/09/19 10:13:07;;;;;;;5.32;4.18;;;17.10;99.90;;;;;;4934203;29;20131;-77
2021/09/19 10:15:35;;;;;;;4.57;3.90;;;17.20;99.90;;;;;;4933711;29;20082;-75
2021/09/19 10:18:01;;;;;;;6.20;3.90;;;17.20;99.90;;;;;;4933948;29;20031;-76
2021/09/19 10:20:29;;;;;;;4.22;3.83;;;17.20;99.90;;;;;;4935379;29;20027;-77
2021/09/19 10:23:09;;;;;;;4.90;4.50;;;17.20;99.90;;;;;;4933074;29;20044;-75
2021/09/19 10:25:39;;;;;;;4.70;4.30;;;17.20;99.90;;;;;;4935749;29;20048;-77
2021/09/19 10:28:26;;;;;;;4.53;4.13;;;17.10;99.90;;;;;;4933276;29;20023;-76
2021/09/19 10:31:20;;;;;;;4.18;3.78;;;17.10;99.90;;;;;;4933996;29;20043;-78
2021/09/19 10:33:50;;;;;;;3.83;3.53;;;17.10;99.90;;;;;;4934281;29;20031;-77
2021/09/19 10:36:39;;;;;;;4.25;3.90;;;17.10;99.90;;;;;;4932922;29;20094;-78
2021/09/19 10:39:18;;;;;;;4.18;3.78;;;17.10;99.90;;;;;;4933726;29;20031;-77
2021/09/19 10:42:02;;;;;;;3.85;3.50;;;17.10;99.90;;;;;;4934174;29;20040;-79
2021/09/19 10:44:49;;;;;;;3.90;3.60;;;17.10;99.90;;;;;;4933335;29;20027;-75
2021/09/19 10:47:43;;;;;;;3.25;2.95;;;17.10;99.90;;;;;;4933974;29;20487;-76
2021/09/19 10:50:21;;;;;;;2.80;2.60;;;17.10;99.90;;;;;;4933205;29;20034;-76
2021/09/19 10:52:49;;;;;;;2.88;2.58;;;17.10;99.90;;;;;;4933814;29;20036;-76
2021/09/19 10:55:40;;;;;;;3.90;3.58;;;17.10;99.90;;;;;;4933818;29;20024;-76
2021/09/19 10:58:11;;;;;;;3.22;2.92;;;17.20;99.90;;;;;;4933010;29;20032;-76
2021/09/19 11:00:39;;;;;;;3.10;2.80;;;17.20;99.90;;;;;;4935375;29;20462;-77
2021/09/19 11:03:14;;;;;;;2.72;2.50;;;17.30;99.90;;;;;;4933384;29;20554;-76
2021/09/19 11:05:49;;;;;;;2.88;2.60;;;17.40;99.90;;;;;;4933243;29;20111;-76
2021/09/19 11:08:19;;;;;;;4.00;3.03;;;17.50;99.90;;;;;;4933523;29;20036;-76
2021/09/19 11:10:44;;;;;;;3.50;2.83;;;17.60;99.90;;;;;;4934737;29;20524;-76
2021/09/19 11:13:28;;;;;;;2.55;2.35;;;17.70;99.90;;;;;;4933360;29;20024;-77
2021/09/19 11:16:02;;;;;;;2.90;2.70;;;17.80;99.90;;;;;;4933799;29;20031;-75
2021/09/19 11:18:49;;;;;;;2.83;2.50;;;17.80;99.90;;;;;;4934662;29;20079;-75
2021/09/19 11:21:17;;;;;;;3.83;2.80;;;17.80;99.90;;;;;;4933417;29;20047;-76
2021/09/19 11:23:48;;;;;;;3.13;2.83;;;17.90;99.90;;;;;;4933788;29;20518;-76
2021/09/19 11:26:16;;;;;;;2.80;2.58;;;18.10;99.90;;;;;;4933118;29;20380;-78
2021/09/19 11:28:42;;;;;;;2.78;2.58;;;18.10;99.90;;;;;;4933852;29;20027;-76
2021/09/19 11:31:08;;;;;;;3.03;2.35;;;18.10;99.90;;;;;;4933446;29;20392;-77
2021/09/19 11:33:35;;;;;;;2.70;2.50;;;18.10;99.90;;;;;;4933281;29;20055;-77
2021/09/19 11:36:08;;;;;;;4.05;3.42;;;18.20;99.90;;;;;;4933359;29;20031;-77
2021/09/19 11:38:35;;;;;;;3.95;2.63;;;18.20;99.90;;;;;;4932796;29;20074;-77
2021/09/19 11:41:01;;;;;;;2.70;2.50;;;18.20;99.90;;;;;;4933151;29;20396;-77
2021/09/19 11:43:27;;;;;;;3.15;2.38;;;18.30;99.90;;;;;;4933675;29;20016;-77
2021/09/19 11:45:52;;;;;;;2.45;2.25;;;18.30;99.90;;;;;;4934905;29;20027;-78
2021/09/19 11:48:18;;;;;;;3.22;2.60;;;18.30;99.90;;;;;;4936719;29;20082;-77
2021/09/19 11:50:45;;;;;;;2.67;2.47;;;18.30;99.90;;;;;;4937270;29;20023;-77
2021/09/19 11:53:11;;;;;;;2.78;2.58;;;18.30;99.90;;;;;;4935959;29;20019;-77
2021/09/19 11:55:44;;;;;;;2.88;2.40;;;18.30;99.90;;;;;;4937355;29;20030;-76
2021/09/19 11:58:29;;;;;;;2.83;2.47;;;18.20;99.90;;;;;;4936470;29;20024;-79
2021/09/19 12:01:00;;;;;;;2.85;2.65;;;18.30;99.90;;;;;;4935718;29;20039;-79
2021/09/19 12:03:27;;;;;;;2.60;2.40;;;18.40;99.90;;;;;;4936774;29;20028;-78
2021/09/19 12:05:55;;;;;;;3.05;2.78;;;18.50;99.90;;;;;;4936254;29;20032;-76
2021/09/19 12:08:22;;;;;;;2.85;2.65;;;18.60;99.90;;;;;;4936447;29;20024;-76
2021/09/19 12:10:49;;;;;;;2.35;2.15;;;18.70;99.90;;;;;;4936416;29;20499;-79
2021/09/19 12:13:23;;;;;;;3.35;2.58;;;18.70;99.90;;;;;;4936219;29;20027;-76
2021/09/19 12:16:11;;;;;;;4.13;2.88;;;18.80;99.90;;;;;;4936987;29;20028;-77
2021/09/19 12:18:41;;;;;;;3.30;2.90;;;18.90;99.90;;;;;;4936502;29;20055;-78
2021/09/19 12:21:15;;;;;;;3.65;3.10;;;18.90;99.90;;;;;;4935582;29;20027;-77
2021/09/19 12:23:48;;;;;;;3.20;2.60;;;19.00;99.90;;;;;;4936306;29;20027;-77
2021/09/19 12:26:22;;;;;;;2.70;2.50;;;19.10;99.90;;;;;;4935650;29;20063;-78
2021/09/19 12:28:57;;;;;;;3.33;3.08;;;19.20;99.90;;;;;;4936816;29;20032;-77
2021/09/19 12:31:51;;;;;;;3.33;2.70;;;19.20;99.90;;;;;;4937828;29;20031;-77
2021/09/19 12:34:21;;;;;;;3.67;2.38;;;19.20;99.90;;;;;;4927593;29;20039;-75
2021/09/19 12:36:52;;;;;;;3.90;2.25;;;19.20;99.90;;;;;;4936686;29;20024;-76
2021/09/19 12:39:26;;;;;;;2.45;2.25;;;19.20;99.90;;;;;;4935731;29;20025;-75
2021/09/19 12:41:59;;;;;;;3.13;1.95;;;19.10;99.90;;;;;;4935634;29;20568;-76
2021/09/19 12:44:27;;;;;;;1.70;1.60;;;19.10;99.90;;;;;;4935911;29;20030;-76
2021/09/19 12:46:59;;;;;;;2.20;2.00;;;19.00;99.90;;;;;;4935941;29;20031;-77
2021/09/19 12:49:31;;;;;;;2.28;2.10;;;19.00;99.90;;;;;;4935784;29;20103;-76
2021/09/19 12:52:07;;;;;;;2.67;2.22;;;19.00;99.90;;;;;;4935639;29;20087;-77